createdAt,value
2024-04-25T00:00:33.477Z,5.75
2024-04-25T00:03:03.279Z,7.38
2024-04-25T00:05:33.138Z,7.88
2024-04-25T00:08:05.642Z,5.20
2024-04-25T00:10:35.942Z,4.30
2024-04-25T00:13:05.637Z,7.03
2024-04-25T00:15:35.766Z,8.27
2024-04-25T00:18:05.488Z,9.85
2024-04-25T00:20:35.258Z,7.20
2024-04-25T00:23:07.911Z,6.75
2024-04-25T00:25:37.614Z,5.05
2024-04-25T00:28:07.843Z,3.60
2024-04-25T00:30:37.603Z,10.00
2024-04-25T00:33:07.899Z,8.73
2024-04-25T00:35:37.742Z,5.60
2024-04-25T00:38:11.332Z,6.72
2024-04-25T00:40:41.015Z,5.75
2024-04-25T00:43:10.904Z,11.77
2024-04-25T00:45:40.860Z,6.18
2024-04-25T00:48:11.692Z,10.02
2024-04-25T00:50:41.831Z,9.13
2024-04-25T00:53:14.573Z,7.47
2024-04-25T00:55:44.515Z,8.90
2024-04-25T00:58:15.153Z,8.85
2024-04-25T01:00:46.799Z,7.10
2024-04-25T01:03:17.205Z,8.90
2024-04-25T01:05:50.286Z,9.43
2024-04-25T01:10:53.509Z,7.13
2024-04-25T01:13:23.458Z,7.88
2024-04-25T01:15:53.308Z,4.32
2024-04-25T01:18:23.386Z,11.55
2024-04-25T01:20:54.416Z,6.20
2024-04-25T01:23:30.412Z,8.35
2024-04-25T01:26:03.254Z,7.22
2024-04-25T01:28:35.289Z,5.53
2024-04-25T01:31:06.809Z,6.47
2024-04-25T01:33:39.251Z,6.65
2024-04-25T01:36:09.451Z,7.57
2024-04-25T01:38:39.232Z,8.18
2024-04-25T01:41:11.646Z,6.82
2024-04-25T01:43:41.420Z,10.55
2024-04-25T01:46:11.154Z,9.25
2024-04-25T01:48:40.927Z,4.03
2024-04-25T01:51:10.782Z,6.95
2024-04-25T01:53:40.517Z,5.65
2024-04-25T01:56:12.961Z,5.68
2024-04-25T01:58:42.715Z,5.35
2024-04-25T02:01:12.387Z,5.65
2024-04-25T02:03:43.642Z,7.45
2024-04-25T02:06:15.156Z,8.23
2024-04-25T02:08:45.526Z,8.68
2024-04-25T02:11:17.934Z,8.30
2024-04-25T02:13:47.879Z,11.75
2024-04-25T02:16:17.644Z,5.18
2024-04-25T02:18:47.525Z,9.48
2024-04-25T02:21:44.856Z,9.23
2024-04-25T02:24:30.648Z,5.38
2024-04-25T02:27:02.923Z,8.63
2024-04-25T02:29:32.613Z,7.47
2024-04-25T02:32:02.461Z,9.77
2024-04-25T02:34:32.193Z,10.10
2024-04-25T02:37:01.839Z,6.57
2024-04-25T02:39:32.673Z,9.65
2024-04-25T02:42:05.248Z,7.28
2024-04-25T02:44:35.393Z,8.00
2024-04-25T02:47:02.682Z,12.73
2024-04-25T02:49:32.489Z,9.10
2024-04-25T02:52:08.842Z,10.68
2024-04-25T02:54:38.593Z,14.75
2024-04-25T02:57:08.352Z,9.50
2024-04-25T02:59:38.103Z,11.07
2024-04-25T03:02:07.420Z,11.65
2024-04-25T03:04:37.231Z,8.43
2024-04-25T03:07:04.682Z,11.60
2024-04-25T03:09:34.788Z,9.55
2024-04-25T03:12:02.096Z,8.40
2024-04-25T03:14:34.516Z,12.32
2024-04-25T03:17:01.658Z,12.55
2024-04-25T03:19:31.490Z,10.82
2024-04-25T03:21:58.530Z,10.15
2024-04-25T03:24:28.247Z,8.82
2024-04-25T03:26:55.340Z,8.23
2024-04-25T03:29:25.128Z,7.78
2024-04-25T03:31:55.126Z,11.70
2024-04-25T03:34:25.358Z,10.85
2024-04-25T03:36:56.094Z,11.82
2024-04-25T03:39:26.476Z,9.60
2024-04-25T03:41:56.190Z,7.70
2024-04-25T03:44:26.030Z,12.73
2024-04-25T03:47:00.235Z,13.88
2024-04-25T03:49:30.119Z,10.90
2024-04-25T03:52:00.686Z,13.90
2024-04-25T03:54:30.613Z,11.93
2024-04-25T03:57:00.967Z,12.90
2024-04-25T03:59:30.755Z,12.40
2024-04-25T04:02:03.192Z,11.50
2024-04-25T04:04:32.912Z,12.30
2024-04-25T04:07:02.644Z,11.70
2024-04-25T04:09:32.406Z,19.73
2024-04-25T04:12:03.359Z,15.68
2024-04-25T04:14:33.186Z,9.50
2024-04-25T04:17:05.957Z,13.32
2024-04-25T04:19:37.113Z,13.15
2024-04-25T04:22:07.117Z,13.85
2024-04-25T04:24:36.919Z,13.77
2024-04-25T04:27:06.741Z,15.05
2024-04-25T04:29:36.744Z,13.95
2024-04-25T04:32:09.393Z,11.35
2024-04-25T04:34:39.157Z,10.70
2024-04-25T04:37:08.970Z,12.80
2024-04-25T04:39:38.672Z,12.30
2024-04-25T04:42:08.496Z,11.82
2024-04-25T04:44:38.310Z,14.25
2024-04-25T04:47:11.447Z,20.65
2024-04-25T04:49:41.379Z,17.38
2024-04-25T04:52:11.232Z,12.80
2024-04-25T04:54:41.134Z,15.25
2024-04-25T04:57:10.842Z,17.02
2024-04-25T04:59:40.647Z,20.08
2024-04-25T05:02:13.245Z,23.58
2024-04-25T05:04:43.012Z,15.07
2024-04-25T05:07:12.775Z,17.20
2024-04-25T05:09:42.741Z,13.65
2024-04-25T05:12:12.601Z,11.60
2024-04-25T05:14:42.380Z,12.02
2024-04-25T05:17:15.070Z,13.13
2024-04-25T05:19:44.849Z,20.40
2024-04-25T05:22:14.762Z,13.98
2024-04-25T05:24:44.481Z,11.50
2024-04-25T05:27:14.203Z,15.25
2024-04-25T05:29:43.983Z,13.30
2024-04-25T05:32:16.304Z,16.85
2024-04-25T05:34:46.941Z,13.35
2024-04-25T05:37:17.130Z,14.10
2024-04-25T05:39:47.092Z,16.52
2024-04-25T05:42:17.143Z,14.18
2024-04-25T05:44:49.412Z,12.20
2024-04-25T05:47:22.320Z,11.17
2024-04-25T05:52:24.498Z,11.57
2024-04-25T05:54:54.927Z,14.35
2024-04-25T05:57:24.740Z,15.10
2024-04-25T05:59:54.511Z,12.13
2024-04-25T06:02:27.057Z,14.18
2024-04-25T06:04:56.824Z,11.63
2024-04-25T06:07:26.656Z,11.60
2024-04-25T06:09:57.286Z,12.35
2024-04-25T06:12:27.364Z,12.02
2024-04-25T06:14:57.205Z,19.15
2024-04-25T06:17:29.651Z,11.32
2024-04-25T06:19:59.388Z,15.70
2024-04-25T06:22:29.229Z,16.73
2024-04-25T06:25:02.745Z,17.20
2024-04-25T06:27:32.758Z,13.43
2024-04-25T06:30:02.583Z,17.58
2024-04-25T06:32:37.644Z,12.57
2024-04-25T06:35:09.354Z,21.33
2024-04-25T06:37:39.181Z,15.15
2024-04-25T06:40:10.218Z,13.02
2024-04-25T06:42:40.020Z,20.30
2024-04-25T06:45:10.755Z,16.10
2024-04-25T06:47:43.268Z,13.27
2024-04-25T06:50:13.108Z,12.80
2024-04-25T06:52:43.034Z,14.20
2024-04-25T06:55:13.493Z,13.85
2024-04-25T06:57:43.293Z,16.98
2024-04-25T07:00:15.362Z,17.80
2024-04-25T07:02:47.790Z,18.70
2024-04-25T07:05:17.673Z,11.82
2024-04-25T07:07:47.692Z,11.70
2024-04-25T07:10:17.521Z,11.20
2024-04-25T07:12:47.396Z,17.92
2024-04-25T07:15:17.334Z,14.52
2024-04-25T07:17:49.788Z,14.00
2024-04-25T07:20:19.844Z,13.63
2024-04-25T07:22:49.494Z,14.32
2024-04-25T07:25:19.450Z,14.18
2024-04-25T07:27:49.219Z,16.92
2024-04-25T07:30:19.214Z,12.68
2024-04-25T07:32:51.728Z,12.77
2024-04-25T07:35:21.669Z,15.20
2024-04-25T07:37:51.433Z,13.85
2024-04-25T07:40:21.540Z,14.25
2024-04-25T07:42:51.365Z,13.23
2024-04-25T07:45:21.121Z,14.77
2024-04-25T07:47:53.568Z,16.55
2024-04-25T07:50:23.383Z,17.35
2024-04-25T07:52:53.244Z,13.55
2024-04-25T07:55:23.606Z,16.45
2024-04-25T07:57:53.461Z,16.33
2024-04-25T08:00:23.770Z,14.52
2024-04-25T08:02:56.920Z,15.38
2024-04-25T08:05:26.699Z,16.45
2024-04-25T08:07:56.528Z,14.60
2024-04-25T08:10:27.920Z,14.05
2024-04-25T08:12:57.741Z,15.77
2024-04-25T08:15:27.687Z,11.23
2024-04-25T08:18:00.311Z,13.10
2024-04-25T08:20:30.251Z,14.80
2024-04-25T08:23:00.284Z,18.75
2024-04-25T08:25:30.028Z,15.88
2024-04-25T08:27:59.701Z,16.95
2024-04-25T08:30:29.497Z,11.43
2024-04-25T08:33:02.090Z,13.30
2024-04-25T08:35:31.971Z,12.93
2024-04-25T08:38:02.378Z,12.00
2024-04-25T08:40:32.315Z,11.00
2024-04-25T08:43:03.114Z,10.65
2024-04-25T08:45:35.835Z,13.05
2024-04-25T08:48:13.095Z,12.13
2024-04-25T08:50:44.023Z,15.43
2024-04-25T08:53:16.516Z,14.07
2024-04-25T08:55:47.907Z,16.48
2024-04-25T08:58:17.895Z,16.15
2024-04-25T09:00:47.804Z,14.07
2024-04-25T09:03:21.166Z,11.80
2024-04-25T09:05:51.106Z,10.73
2024-04-25T09:08:21.545Z,8.68
2024-04-25T09:10:51.309Z,9.20
2024-04-25T09:13:22.558Z,8.77
2024-04-25T09:15:52.177Z,11.80
2024-04-25T09:18:24.539Z,12.10
2024-04-25T09:20:55.495Z,10.55
2024-04-25T09:23:25.199Z,9.40
2024-04-25T09:25:55.178Z,14.43
2024-04-25T09:28:25.036Z,7.68
2024-04-25T09:30:55.020Z,12.32
2024-04-25T09:33:27.688Z,9.93
2024-04-25T09:35:57.779Z,8.48
2024-04-25T09:38:27.975Z,7.43
2024-04-25T09:41:00.754Z,9.38
2024-04-25T09:43:31.229Z,12.73
2024-04-25T09:46:05.386Z,5.57
2024-04-25T09:48:38.154Z,6.18
2024-04-25T09:51:21.382Z,7.60
2024-04-25T09:56:25.766Z,10.30
2024-04-25T09:59:04.561Z,8.60
2024-04-25T10:01:35.258Z,6.63
2024-04-25T10:04:08.773Z,8.18
2024-04-25T10:06:39.901Z,7.22
2024-04-25T10:09:09.917Z,7.65
2024-04-25T10:11:40.421Z,8.40
2024-04-25T10:14:10.210Z,5.07
2024-04-25T10:16:40.287Z,7.65
2024-04-25T10:19:12.937Z,8.75
2024-04-25T10:21:49.261Z,5.20
2024-04-25T10:24:19.185Z,5.18
2024-04-25T10:26:49.938Z,7.38
2024-04-25T10:29:21.026Z,12.07
2024-04-25T10:31:50.781Z,9.77
2024-04-25T10:34:23.192Z,7.88
2024-04-25T10:36:52.909Z,7.65
2024-04-25T10:39:22.852Z,4.25
2024-04-25T10:41:52.701Z,9.00
2024-04-25T10:44:22.537Z,7.57
2024-04-25T10:46:52.585Z,3.58
2024-04-25T10:49:25.215Z,5.82
2024-04-25T10:51:55.492Z,7.72
2024-04-25T10:54:25.281Z,10.27
2024-04-25T10:56:55.233Z,5.68
2024-04-25T10:59:31.071Z,3.13
2024-04-25T11:02:03.472Z,3.80
2024-04-25T11:04:40.842Z,3.42
2024-04-25T11:07:11.888Z,5.20
2024-04-25T11:09:42.538Z,2.83
2024-04-25T11:12:13.824Z,3.78
2024-04-25T11:14:44.133Z,3.92
2024-04-25T11:17:16.705Z,4.10
2024-04-25T11:19:50.699Z,5.57
2024-04-25T11:22:30.116Z,4.85
2024-04-25T11:25:16.333Z,3.65
2024-04-25T11:27:46.586Z,5.93
2024-04-25T11:30:16.721Z,4.38
2024-04-25T11:32:48.158Z,5.20
2024-04-25T11:35:23.567Z,4.22
2024-04-25T11:37:58.381Z,5.13
2024-04-25T11:40:36.969Z,5.18
2024-04-25T11:43:07.925Z,5.25
2024-04-25T11:45:38.794Z,4.05
2024-04-25T11:48:12.071Z,5.72
2024-04-25T11:50:45.124Z,7.50
2024-04-25T11:53:18.197Z,7.53
2024-04-25T11:58:18.085Z,2.88
2024-04-25T12:00:49.788Z,5.25
2024-04-25T12:03:20.240Z,2.72
2024-04-25T12:05:52.982Z,4.25
2024-04-25T12:08:22.838Z,4.35
2024-04-25T12:10:54.700Z,5.63
2024-04-25T12:13:24.759Z,3.95
2024-04-25T12:15:54.592Z,3.08
2024-04-25T12:18:27.430Z,6.65
2024-04-25T12:21:03.038Z,4.40
2024-04-25T12:23:35.033Z,5.20
2024-04-25T12:26:05.163Z,6.53
2024-04-25T12:28:35.774Z,4.90
2024-04-25T12:31:08.243Z,3.10
2024-04-25T12:33:39.965Z,3.72
2024-04-25T12:36:12.707Z,3.33
2024-04-25T12:38:42.480Z,5.32
2024-04-25T12:41:12.341Z,2.28
2024-04-25T12:43:42.314Z,4.20
2024-04-25T12:46:12.268Z,4.60
2024-04-25T12:48:42.109Z,6.43
2024-04-25T12:51:14.574Z,5.18
2024-04-25T12:53:44.720Z,9.00
2024-04-25T12:56:14.947Z,3.88
2024-04-25T12:58:44.728Z,5.95
2024-04-25T13:01:14.632Z,4.07
2024-04-25T13:03:47.313Z,5.57
2024-04-25T13:06:19.859Z,7.65
2024-04-25T13:08:49.833Z,3.70
2024-04-25T13:11:20.751Z,2.85
2024-04-25T13:13:50.891Z,3.92
2024-04-25T13:16:21.003Z,4.10
2024-04-25T13:18:50.936Z,2.72
2024-04-25T13:21:23.456Z,4.88
2024-04-25T13:23:53.284Z,3.83
2024-04-25T13:26:26.385Z,3.20
2024-04-25T13:28:58.008Z,2.67
2024-04-25T13:31:27.981Z,5.25
2024-04-25T13:33:57.985Z,2.80
2024-04-25T13:36:31.015Z,3.72
2024-04-25T13:39:00.946Z,3.70
2024-04-25T13:41:30.777Z,1.92
2024-04-25T13:44:00.655Z,4.07
2024-04-25T13:46:32.038Z,3.90
2024-04-25T13:49:01.926Z,4.15
2024-04-25T13:51:35.248Z,2.10
2024-04-25T13:54:07.844Z,5.93
2024-04-25T13:56:37.909Z,2.95
2024-04-25T13:59:07.707Z,4.82
2024-04-25T14:01:37.547Z,3.15
2024-04-25T14:04:07.886Z,4.30
2024-04-25T14:06:42.802Z,4.20
2024-04-25T14:09:12.920Z,2.97
2024-04-25T14:11:43.986Z,6.78
2024-04-25T14:14:16.285Z,5.18
2024-04-25T14:16:46.035Z,4.03
2024-04-25T14:19:15.828Z,3.75
2024-04-25T14:21:48.255Z,6.05
2024-04-25T14:24:20.342Z,4.53
2024-04-25T14:27:06.534Z,11.23
2024-04-25T14:29:39.045Z,3.25
2024-04-25T14:32:09.160Z,2.97
2024-04-25T14:34:39.050Z,1.90
2024-04-25T14:37:14.705Z,2.05
2024-04-25T14:39:44.433Z,3.88
2024-04-25T14:42:14.141Z,3.92
2024-04-25T14:44:44.115Z,3.53
2024-04-25T14:47:13.982Z,3.08
2024-04-25T14:49:45.242Z,2.92
2024-04-25T14:52:17.740Z,4.47
2024-04-25T14:54:47.528Z,2.42
2024-04-25T14:57:17.405Z,4.35
2024-04-25T14:59:49.106Z,2.95
2024-04-25T15:02:19.195Z,3.20
2024-04-25T15:04:50.263Z,3.55
2024-04-25T15:07:25.766Z,9.05
2024-04-25T15:09:56.807Z,4.28
2024-04-25T15:12:30.030Z,4.13
2024-04-25T15:15:11.647Z,5.20
2024-04-25T15:17:49.690Z,8.63
2024-04-25T15:20:19.994Z,4.68
2024-04-25T15:22:53.875Z,3.53
2024-04-25T15:25:24.650Z,3.78
2024-04-25T15:27:54.375Z,3.67
2024-04-25T15:30:24.168Z,4.28
2024-04-25T15:32:54.122Z,3.72
2024-04-25T15:35:24.574Z,3.28
2024-04-25T15:37:56.952Z,4.60
2024-04-25T15:40:26.653Z,4.20
2024-04-25T15:42:56.895Z,3.45
2024-04-25T15:45:26.876Z,3.65
2024-04-25T15:47:56.840Z,4.55
2024-04-25T15:50:26.660Z,2.50
2024-04-25T15:52:59.035Z,3.72
2024-04-25T15:55:28.760Z,6.30
2024-04-25T15:57:59.467Z,3.78
2024-04-25T16:00:29.490Z,3.03
2024-04-25T16:02:59.480Z,2.40
2024-04-25T16:05:29.423Z,4.32
2024-04-25T16:08:02.305Z,2.72
2024-04-25T16:10:31.976Z,3.47
2024-04-25T16:13:01.729Z,4.43
2024-04-25T16:15:31.322Z,3.55
2024-04-25T16:18:01.197Z,3.45
2024-04-25T16:20:31.079Z,2.75
2024-04-25T16:23:03.533Z,4.00
2024-04-25T16:25:33.209Z,4.15
2024-04-25T16:28:00.487Z,5.68
2024-04-25T16:30:30.330Z,6.47
2024-04-25T16:33:00.289Z,3.83
2024-04-25T16:35:30.147Z,3.67
2024-04-25T16:38:00.238Z,3.92
2024-04-25T16:40:32.971Z,6.22
2024-04-25T16:43:02.757Z,3.42
2024-04-25T16:45:34.132Z,6.70
2024-04-25T16:48:03.987Z,7.03
2024-04-25T16:50:33.809Z,2.75
2024-04-25T16:53:03.618Z,2.38
2024-04-25T16:55:36.078Z,2.33
2024-04-25T16:58:07.561Z,6.88
2024-04-25T17:00:40.243Z,6.72
2024-04-25T17:03:09.996Z,4.35
2024-04-25T17:05:39.885Z,4.63
2024-04-25T17:08:10.216Z,3.15
2024-04-25T17:10:42.504Z,3.17
2024-04-25T17:13:12.889Z,3.55
2024-04-25T17:15:42.747Z,3.53
2024-04-25T17:18:14.624Z,3.83
2024-04-25T17:20:44.426Z,3.15
2024-04-25T17:23:16.146Z,3.17
2024-04-25T17:25:48.548Z,3.67
2024-04-25T17:28:18.322Z,4.05
2024-04-25T17:30:48.193Z,5.30
2024-04-25T17:33:18.221Z,2.63
2024-04-25T17:35:47.976Z,3.28
2024-04-25T17:38:17.718Z,3.92
2024-04-25T17:40:51.157Z,3.17
2024-04-25T17:43:20.842Z,4.75
2024-04-25T17:45:50.599Z,3.53
2024-04-25T17:48:20.445Z,3.60
2024-04-25T17:50:50.375Z,4.20
2024-04-25T17:53:20.346Z,7.38
2024-04-25T17:55:52.852Z,5.25
2024-04-25T17:58:22.602Z,4.35
2024-04-25T18:00:52.729Z,6.32
2024-04-25T18:03:22.527Z,3.15
2024-04-25T18:05:52.248Z,3.25
2024-04-25T18:08:23.098Z,2.75
2024-04-25T18:10:57.703Z,4.47
2024-04-25T18:13:27.600Z,5.03
2024-04-25T18:15:57.316Z,3.53
2024-04-25T18:18:27.339Z,6.65
2024-04-25T18:20:57.218Z,9.55
2024-04-25T18:23:27.047Z,10.77
2024-04-25T18:25:59.502Z,9.32
2024-04-25T18:28:30.153Z,11.57
2024-04-25T18:30:59.867Z,9.02
2024-04-25T18:33:29.825Z,7.03
2024-04-25T18:35:59.870Z,6.25
2024-04-25T18:38:29.643Z,9.10
2024-04-25T18:41:01.988Z,4.30
2024-04-25T18:43:31.678Z,4.20
2024-04-25T18:46:01.670Z,7.53
2024-04-25T18:48:31.442Z,5.97
2024-04-25T18:51:01.238Z,5.47
2024-04-25T18:53:30.957Z,7.60
2024-04-25T18:56:03.325Z,8.27
2024-04-25T18:58:33.089Z,5.82
2024-04-25T19:01:02.924Z,9.70
2024-04-25T19:03:32.861Z,6.55
2024-04-25T19:06:02.603Z,10.50
2024-04-25T19:08:32.383Z,12.23
2024-04-25T19:11:08.405Z,7.68
2024-04-25T19:13:39.501Z,5.65
2024-04-25T19:16:09.491Z,8.00
2024-04-25T19:18:39.259Z,7.97
2024-04-25T19:21:09.022Z,4.50
2024-04-25T19:23:36.347Z,6.57
2024-04-25T19:26:13.059Z,9.00
2024-04-25T19:28:43.419Z,9.85
2024-04-25T19:31:13.389Z,11.68
2024-04-25T19:33:43.356Z,12.43
2024-04-25T19:36:17.944Z,8.40
2024-04-25T19:38:47.784Z,9.48
2024-04-25T19:41:20.486Z,7.72
2024-04-25T19:43:50.209Z,10.13
2024-04-25T19:46:19.896Z,9.40
2024-04-25T19:48:49.869Z,8.77
2024-04-25T19:51:19.870Z,11.10
2024-04-25T19:53:49.633Z,10.70
2024-04-25T19:56:22.153Z,10.23
2024-04-25T19:58:51.862Z,15.98
2024-04-25T20:01:21.711Z,16.60
2024-04-25T20:03:51.474Z,20.13
2024-04-25T20:06:25.386Z,19.33
2024-04-25T20:08:57.859Z,19.05
2024-04-25T20:11:32.512Z,14.82
2024-04-25T20:14:02.213Z,14.73
2024-04-25T20:16:32.082Z,12.05
2024-04-25T20:19:17.790Z,15.05
2024-04-25T20:21:47.519Z,11.85
2024-04-25T20:24:17.267Z,14.13
2024-04-25T20:26:50.185Z,18.98
2024-04-25T20:31:49.704Z,18.52
2024-04-25T20:34:20.504Z,19.10
2024-04-25T20:36:50.556Z,14.32
2024-04-25T20:39:21.225Z,11.68
2024-04-25T20:41:55.252Z,13.63
2024-04-25T20:44:25.199Z,21.42
2024-04-25T20:46:55.750Z,17.35
2024-04-25T20:49:26.779Z,21.17
2024-04-25T20:51:58.126Z,17.98
2024-04-25T20:54:27.875Z,14.48
2024-04-25T20:57:00.275Z,11.65
2024-04-25T20:59:30.140Z,9.35
2024-04-25T21:02:00.070Z,12.48
2024-04-25T21:04:29.810Z,10.48
2024-04-25T21:06:59.540Z,10.40
2024-04-25T21:09:29.284Z,16.73
2024-04-25T21:12:02.087Z,15.82
2024-04-25T21:14:31.949Z,18.63
2024-04-25T21:17:01.739Z,25.42
2024-04-25T21:19:31.515Z,22.25
2024-04-25T21:22:01.709Z,22.25
2024-04-25T21:24:31.420Z,29.33
2024-04-25T21:27:03.863Z,25.77
2024-04-25T21:29:33.755Z,29.08
2024-04-25T21:32:03.535Z,28.75
2024-04-25T21:34:33.429Z,34.38
2024-04-25T21:37:03.301Z,34.28
2024-04-25T21:39:33.110Z,31.98
2024-04-25T21:42:05.573Z,35.28
2024-04-25T21:44:35.325Z,22.05
2024-04-25T21:47:05.268Z,30.33
2024-04-25T21:49:35.114Z,22.00
2024-04-25T21:52:04.865Z,24.98
2024-04-25T21:54:34.660Z,18.77
2024-04-25T21:57:07.137Z,21.90
2024-04-25T21:59:39.294Z,15.00
2024-04-25T22:02:09.099Z,13.37
2024-04-25T22:04:39.875Z,11.27
2024-04-25T22:07:09.703Z,10.23
2024-04-25T22:09:39.427Z,8.30
2024-04-25T22:12:13.083Z,12.43
2024-04-25T22:14:43.176Z,12.02
2024-04-25T22:17:14.850Z,9.25
2024-04-25T22:19:44.555Z,16.45
2024-04-25T22:22:14.395Z,12.60
2024-04-25T22:24:46.905Z,12.63
2024-04-25T22:27:19.934Z,13.75
2024-04-25T22:32:19.353Z,13.50
2024-04-25T22:34:49.849Z,13.88
2024-04-25T22:37:19.636Z,14.13
2024-04-25T22:39:49.312Z,9.45
2024-04-25T22:42:21.705Z,11.20
2024-04-25T22:44:54.256Z,10.38
2024-04-25T22:47:26.896Z,16.10
2024-04-25T22:49:56.761Z,12.65
2024-04-25T22:52:27.084Z,12.63
2024-04-25T22:54:56.897Z,12.65
2024-04-25T22:57:29.265Z,11.48
2024-04-25T22:59:59.320Z,11.82
2024-04-25T23:02:29.327Z,14.48
2024-04-25T23:04:59.191Z,12.10
2024-04-25T23:07:28.884Z,16.10
2024-04-25T23:09:58.656Z,12.73
2024-04-25T23:12:31.906Z,12.60
2024-04-25T23:15:03.869Z,9.43
2024-04-25T23:17:34.037Z,13.75
2024-04-25T23:20:03.886Z,12.38
2024-04-25T23:22:33.863Z,10.23
2024-04-25T23:25:03.621Z,8.20
2024-04-25T23:27:36.295Z,8.88
2024-04-25T23:30:06.291Z,10.52
2024-04-25T23:32:36.189Z,11.70
2024-04-25T23:35:06.865Z,12.63
2024-04-25T23:37:33.976Z,12.82
2024-04-25T23:40:04.475Z,10.18
2024-04-25T23:42:37.726Z,8.48
2024-04-25T23:45:08.776Z,12.57
2024-04-25T23:47:38.796Z,10.18
2024-04-25T23:50:09.723Z,10.27
2024-04-25T23:52:39.435Z,12.10
2024-04-25T23:55:09.533Z,11.70
2024-04-25T23:57:41.985Z,9.60
